Time;durP1;ratioP1;P1;durP2;ratioP2;P2;SDS_P1;SDS_P2;PMS_P1;PMS_P2;Temp;Humidity;BMP_temperature;BMP_pressure;BME280_temperature;BME280_humidity;BME280_pressure;Samples;Min_cycle;Max_cycle;Signal;HPM_P1;HPM_P2
2021/12/27 00:00:36;;;;;;;9.45;7.40;;;6.50;99.90;;;;;;5022787;28;20615;-82
2021/12/27 00:03:05;;;;;;;8.40;6.65;;;6.70;99.90;;;;;;5025067;28;20207;-81
2021/12/27 00:05:32;;;;;;;7.22;6.10;;;;;;;;;;5021609;28;20201;-81
2021/12/27 00:08:01;;;;;;;9.65;7.50;;;6.60;99.90;;;;;;5024059;28;20197;-81
2021/12/27 00:10:29;;;;;;;7.90;7.10;;;;;;;;;;5016545;28;20224;-82
2021/12/27 00:12:56;;;;;;;8.48;6.50;;;6.60;99.90;;;;;;5022340;28;20220;-82
2021/12/27 00:15:24;;;;;;;9.10;7.18;;;6.80;99.90;;;;;;5020443;28;20205;-82
2021/12/27 00:17:52;;;;;;;12.93;6.90;;;6.70;99.90;;;;;;5022477;28;20213;-82
2021/12/27 00:20:20;;;;;;;8.88;7.70;;;6.80;99.90;;;;;;5025830;28;20299;-81
2021/12/27 00:22:48;;;;;;;12.77;7.93;;;;;;;;;;5022135;28;20193;-81
2021/12/27 00:25:17;;;;;;;9.55;7.13;;;6.80;99.90;;;;;;5016659;28;20209;-82
2021/12/27 00:27:45;;;;;;;7.80;6.13;;;;;;;;;;5022374;28;20201;-82
2021/12/27 00:30:13;;;;;;;7.43;6.15;;;6.80;99.90;;;;;;5022060;28;20217;-81
2021/12/27 00:32:43;;;;;;;10.02;7.13;;;6.80;99.90;;;;;;5022019;28;20205;-81
2021/12/27 00:35:13;;;;;;;11.82;8.23;;;6.90;99.90;;;;;;5021446;28;20606;-82
2021/12/27 00:37:40;;;;;;;12.10;7.85;;;;;;;;;;5024805;28;20204;-81
2021/12/27 00:40:09;;;;;;;10.80;7.70;;;6.80;99.90;;;;;;5019513;28;20294;-82
2021/12/27 00:42:37;;;;;;;9.02;6.88;;;;;;;;;;5022440;28;20236;-82
2021/12/27 00:45:05;;;;;;;11.15;7.28;;;6.90;99.90;;;;;;5022243;28;20208;-82
2021/12/27 00:47:33;;;;;;;12.80;9.23;;;;;;;;;;5023426;28;20213;-82
2021/12/27 00:50:00;;;;;;;9.95;7.40;;;;;;;;;;5019796;28;20212;-82
2021/12/27 00:52:27;;;;;;;9.85;7.53;;;;;;;;;;5024500;28;20234;-82
2021/12/27 00:54:55;;;;;;;12.20;9.70;;;;;;;;;;5018715;28;20205;-81
2021/12/27 00:57:22;;;;;;;11.50;7.82;;;;;;;;;;5024313;28;20884;-81
2021/12/27 00:59:51;;;;;;;12.77;9.05;;;;;;;;;;5021329;28;20302;-82
2021/12/27 01:02:18;;;;;;;9.82;8.48;;;;;;;;;;5024647;28;20209;-81
2021/12/27 01:04:45;;;;;;;10.32;8.43;;;;;;;;;;5015954;28;20224;-81
2021/12/27 01:07:12;;;;;;;9.95;8.45;;;;;;;;;;5024098;28;21026;-81
2021/12/27 01:09:54;;;;;;;11.70;8.60;;;;;;;;;;5021906;28;20208;-82
2021/12/27 01:12:32;;;;;;;12.20;8.80;;;;;;;;;;5023650;28;20208;-81
2021/12/27 01:15:12;;;;;;;12.50;7.88;;;6.80;99.90;;;;;;5017449;28;20205;-81
2021/12/27 01:17:42;;;;;;;10.02;8.18;;;6.60;99.90;;;;;;5021427;28;20278;-82
2021/12/27 01:20:13;;;;;;;9.10;7.95;;;6.60;99.90;;;;;;5021326;28;20857;-81
2021/12/27 01:22:41;;;;;;;11.93;8.80;;;;;;;;;;5021734;28;20232;-81
2021/12/27 01:25:09;;;;;;;12.60;8.93;;;7.10;99.90;;;;;;5020445;28;20209;-81
2021/12/27 01:27:37;;;;;;;12.00;8.85;;;;;;;;;;5021257;28;20205;-81
2021/12/27 01:30:08;;;;;;;13.65;8.43;;;6.60;99.90;;;;;;5021430;28;20209;-81
2021/12/27 01:32:40;;;;;;;14.85;8.32;;;6.50;99.90;;;;;;5024467;28;20205;-81
2021/12/27 01:35:07;;;;;;;9.77;8.38;;;;;;;;;;5020319;28;20209;-82
2021/12/27 01:37:35;;;;;;;9.88;8.02;;;;;;;;;;5023588;28;20658;-81
2021/12/27 01:40:02;;;;;;;13.05;8.70;;;;;;;;;;5020789;28;20279;-82
2021/12/27 01:42:29;;;;;;;9.63;8.10;;;;;;;;;;5020999;28;20208;-81
2021/12/27 01:44:57;;;;;;;12.35;9.55;;;;;;;;;;5021482;28;20215;-82
2021/12/27 01:47:27;;;;;;;11.18;7.95;;;;;;;;;;5020589;28;20649;-81
2021/12/27 01:49:55;;;;;;;10.30;8.50;;;;;;;;;;5020652;28;20205;-81
2021/12/27 01:52:22;;;;;;;10.63;7.65;;;;;;;;;;5022532;28;20208;-81
2021/12/27 01:54:51;;;;;;;11.82;8.57;;;6.00;99.90;;;;;;5019683;28;20213;-81
2021/12/27 01:57:19;;;;;;;8.40;7.50;;;;;;;;;;5016393;28;20563;-81
2021/12/27 01:59:46;;;;;;;10.02;7.82;;;;;;;;;;5020471;28;20231;-81
2021/12/27 02:02:13;;;;;;;11.40;7.72;;;;;;;;;;5020841;28;20263;-81
2021/12/27 02:04:42;;;;;;;11.73;7.53;;;;;;;;;;5018876;28;20205;-81
2021/12/27 02:07:09;;;;;;;10.93;7.20;;;;;;;;;;5019589;28;20206;-82
2021/12/27 02:09:47;;;;;;;13.20;8.25;;;;;;;;;;5021622;28;20223;-82
2021/12/27 02:12:14;;;;;;;10.18;7.82;;;;;;;;;;5019622;28;20212;-82
2021/12/27 02:14:41;;;;;;;10.55;8.07;;;;;;;;;;5020925;28;20208;-82
2021/12/27 02:17:09;;;;;;;12.88;9.32;;;;;;;;;;5022006;28;20213;-82
2021/12/27 02:19:37;;;;;;;10.75;8.20;;;6.20;99.90;;;;;;5020582;28;20318;-82
2021/12/27 02:22:07;;;;;;;11.63;8.02;;;;;;;;;;5018553;28;20363;-82
2021/12/27 02:24:34;;;;;;;11.80;8.75;;;;;;;;;;5018474;28;20209;-82
2021/12/27 02:27:01;;;;;;;12.93;8.85;;;;;;;;;;5023188;28;20206;-81
2021/12/27 02:29:29;;;;;;;12.00;7.88;;;;;;;;;;5020521;28;20741;-81
2021/12/27 02:31:56;;;;;;;11.07;7.45;;;;;;;;;;5019209;28;20209;-81
2021/12/27 02:34:23;;;;;;;9.95;7.63;;;;;;;;;;5019348;28;20654;-81
2021/12/27 02:36:51;;;;;;;7.80;6.38;;;;;;;;;;5019322;28;20356;-81
2021/12/27 02:39:19;;;;;;;9.38;7.20;;;6.00;99.90;;;;;;5020789;28;20220;-81
2021/12/27 02:41:46;;;;;;;17.00;7.78;;;;;;;;;;5019038;28;20619;-81
2021/12/27 02:44:14;;;;;;;8.35;7.05;;;;;;;;;;5021841;28;20208;-81
2021/12/27 02:46:41;;;;;;;14.63;7.63;;;;;;;;;;5021274;28;20242;-81
2021/12/27 02:49:08;;;;;;;11.18;7.05;;;;;;;;;;5018710;28;20197;-81
2021/12/27 02:51:36;;;;;;;11.20;7.28;;;;;;;;;;5018779;28;20241;-81
2021/12/27 02:54:03;;;;;;;9.30;6.18;;;;;;;;;;5023011;28;20193;-81
2021/12/27 02:56:33;;;;;;;10.27;7.82;;;;;;;;;;5018904;28;20599;-81
2021/12/27 02:59:01;;;;;;;9.23;6.85;;;;;;;;;;5019240;28;20299;-81
2021/12/27 03:01:28;;;;;;;7.28;5.57;;;;;;;;;;5019141;28;20215;-81
2021/12/27 03:03:56;;;;;;;9.18;6.60;;;;;;;;;;5019101;28;20204;-81
2021/12/27 03:06:23;;;;;;;9.57;6.00;;;;;;;;;;5013928;28;20225;-81
2021/12/27 03:08:51;;;;;;;5.55;5.05;;;;;;;;;;5019913;28;20200;-81
2021/12/27 03:11:19;;;;;;;7.18;6.20;;;;;;;;;;5021456;28;20206;-81
2021/12/27 03:13:51;;;;;;;6.30;4.75;;;6.10;99.90;;;;;;5019040;28;20566;-81
2021/12/27 03:16:20;;;;;;;6.68;4.82;;;6.10;99.90;;;;;;5015684;28;20232;-81
2021/12/27 03:18:48;;;;;;;6.47;5.57;;;;;;;;;;5019047;28;20209;-81
2021/12/27 03:21:15;;;;;;;8.38;6.70;;;;;;;;;;5021194;28;20229;-81
2021/12/27 03:23:44;;;;;;;6.13;4.80;;;;;;;;;;5018612;28;20208;-81
2021/12/27 03:26:12;;;;;;;6.47;5.78;;;6.10;99.90;;;;;;5019533;28;20208;-81
2021/12/27 03:28:40;;;;;;;8.07;5.00;;;6.10;99.90;;;;;;5021229;28;20325;-81
2021/12/27 03:31:10;;;;;;;7.05;5.25;;;6.20;99.90;;;;;;5019091;28;20542;-81
2021/12/27 03:33:38;;;;;;;7.47;5.50;;;;;;;;;;5021285;28;20258;-82
2021/12/27 03:36:08;;;;;;;9.10;5.88;;;6.20;99.90;;;;;;5017705;28;20202;-81
2021/12/27 03:38:38;;;;;;;6.20;5.60;;;6.20;99.90;;;;;;5017635;28;20296;-81
2021/12/27 03:41:09;;;;;;;6.95;5.20;;;6.20;99.90;;;;;;5018722;28;20225;-81
2021/12/27 03:43:37;;;;;;;7.28;5.50;;;;;;;;;;5019227;28;20693;-82
2021/12/27 03:46:04;;;;;;;6.43;5.18;;;;;;;;;;5018613;28;20203;-81
2021/12/27 03:48:32;;;;;;;7.05;5.10;;;6.30;99.90;;;;;;5016827;28;20225;-82
2021/12/27 03:51:01;;;;;;;9.10;5.55;;;;;;;;;;5018525;28;20209;-81
2021/12/27 03:53:29;;;;;;;7.47;5.60;;;;;;;;;;5021170;28;20327;-81
2021/12/27 03:55:56;;;;;;;6.75;5.65;;;;;;;;;;5020814;28;20278;-81
2021/12/27 03:58:27;;;;;;;7.07;4.97;;;;;;;;;;5019202;28;20670;-81
2021/12/27 04:01:02;;;;;;;6.47;5.43;;;6.20;99.90;;;;;;5013784;28;20246;-81
2021/12/27 04:03:31;;;;;;;5.38;4.70;;;6.20;99.90;;;;;;5017101;28;20212;-81
2021/12/27 04:06:00;;;;;;;7.45;5.30;;;;;;;;;;5019839;28;20243;-81
2021/12/27 04:08:27;;;;;;;7.03;5.40;;;;;;;;;;5020416;28;20208;-81
2021/12/27 04:10:55;;;;;;;7.45;5.20;;;;;;;;;;5018595;28;20260;-81
2021/12/27 04:13:23;;;;;;;7.18;4.00;;;6.10;99.90;;;;;;5021962;28;20506;-82
2021/12/27 04:15:52;;;;;;;5.40;4.85;;;6.10;99.90;;;;;;5020440;28;20209;-82
2021/12/27 04:18:19;;;;;;;7.13;5.00;;;;;;;;;;5022434;28;20254;-82
2021/12/27 04:20:46;;;;;;;5.50;4.80;;;;;;;;;;5022174;28;20831;-81
2021/12/27 04:23:18;;;;;;;7.30;5.53;;;;;;;;;;5024160;28;21033;-82
2021/12/27 04:25:45;;;;;;;6.18;5.50;;;;;;;;;;5024466;28;20197;-81
2021/12/27 04:28:13;;;;;;;4.40;3.63;;;;;;;;;;5022756;28;20209;-81
2021/12/27 04:30:40;;;;;;;5.13;4.20;;;6.00;99.90;;;;;;5024509;28;20201;-82
2021/12/27 04:33:07;;;;;;;5.53;4.60;;;;;;;;;;5021527;28;20561;-82
2021/12/27 04:35:35;;;;;;;4.70;4.18;;;5.90;99.90;;;;;;5024557;28;20216;-81
2021/12/27 04:38:02;;;;;;;4.75;4.10;;;;;;;;;;5022354;28;20212;-82
2021/12/27 04:40:34;;;;;;;4.45;4.00;;;6.00;99.90;;;;;;5021080;28;20225;-82
2021/12/27 04:43:08;;;;;;;6.20;4.45;;;5.80;99.90;;;;;;5014932;28;20888;-82
2021/12/27 04:45:35;;;;;;;8.48;6.43;;;;;;;;;;5014896;28;20208;-82
2021/12/27 04:48:02;;;;;;;8.88;6.90;;;;;;;;;;5022966;28;20229;-82
2021/12/27 04:50:32;;;;;;;11.18;8.13;;;;;;;;;;5024159;28;20197;-82
2021/12/27 04:52:59;;;;;;;9.80;7.10;;;;;;;;;;5024783;28;20197;-82
2021/12/27 04:55:28;;;;;;;8.63;7.25;;;6.40;99.90;;;;;;5016595;28;20221;-82
2021/12/27 04:57:57;;;;;;;5.50;5.00;;;6.10;99.90;;;;;;5022079;28;20228;-81
2021/12/27 05:00:24;;;;;;;7.22;6.55;;;;;;;;;;5021465;28;20639;-82
2021/12/27 05:02:52;;;;;;;5.63;4.75;;;;;;;;;;5024844;28;20804;-82
2021/12/27 05:05:19;;;;;;;7.10;4.95;;;;;;;;;;5018415;28;20220;-82
2021/12/27 05:07:47;;;;;;;5.95;5.25;;;;;;;;;;5027088;28;20514;-82
2021/12/27 05:10:16;;;;;;;7.47;5.10;;;6.00;99.90;;;;;;5023626;28;20670;-81
2021/12/27 05:12:43;;;;;;;5.70;4.70;;;;;;;;;;5020703;28;20308;-81
2021/12/27 05:15:12;;;;;;;4.90;4.35;;;;;;;;;;5021023;28;20235;-81
2021/12/27 05:17:39;;;;;;;4.28;3.88;;;;;;;;;;5023868;28;20339;-82
2021/12/27 05:20:08;;;;;;;5.20;4.68;;;;;;;;;;5020923;28;20236;-82
2021/12/27 05:22:36;;;;;;;5.13;3.90;;;;;;;;;;5021738;28;20197;-82
2021/12/27 05:25:04;;;;;;;3.80;3.40;;;6.00;99.90;;;;;;5019996;28;20221;-82
2021/12/27 05:27:32;;;;;;;4.53;4.13;;;;;;;;;;5020758;28;20215;-82
2021/12/27 05:29:59;;;;;;;4.03;3.65;;;;;;;;;;5018993;28;20284;-82
2021/12/27 05:32:28;;;;;;;4.60;4.15;;;;;;;;;;5023774;28;20259;-81
2021/12/27 05:34:55;;;;;;;4.43;4.03;;;;;;;;;;5017532;28;20205;-81
2021/12/27 05:37:22;;;;;;;4.82;3.85;;;;;;;;;;5020972;28;20200;-82
2021/12/27 05:39:50;;;;;;;5.82;3.97;;;;;;;;;;5020478;28;20201;-82
2021/12/27 05:42:17;;;;;;;4.95;4.15;;;;;;;;;;5019957;28;20263;-81
2021/12/27 05:44:44;;;;;;;3.88;3.58;;;;;;;;;;5016846;28;20299;-81
2021/12/27 05:47:11;;;;;;;4.78;4.30;;;;;;;;;;5021554;28;20208;-82
2021/12/27 05:49:43;;;;;;;9.00;3.83;;;;;;;;;;5021115;28;20209;-82
2021/12/27 05:52:10;;;;;;;5.72;3.97;;;;;;;;;;5015351;28;20224;-81
2021/12/27 05:54:38;;;;;;;4.80;4.40;;;;;;;;;;5022268;28;20650;-82
2021/12/27 05:57:05;;;;;;;5.60;5.05;;;6.00;99.90;;;;;;5022583;28;20205;-82
2021/12/27 05:59:32;;;;;;;6.75;5.40;;;;;;;;;;5021361;28;20209;-82
2021/12/27 06:02:00;;;;;;;8.63;7.22;;;;;;;;;;5020878;28;20232;-82
2021/12/27 06:04:27;;;;;;;6.68;6.07;;;;;;;;;;5021444;28;20539;-82
2021/12/27 06:06:56;;;;;;;7.30;5.07;;;;;;;;;;5020533;28;20197;-82
2021/12/27 06:09:23;;;;;;;4.43;4.03;;;;;;;;;;5023209;28;20205;-82
2021/12/27 06:11:50;;;;;;;5.18;3.50;;;;;;;;;;5020876;28;20201;-82
2021/12/27 06:14:17;;;;;;;4.10;3.70;;;;;;;;;;5019303;28;20204;-82
2021/12/27 06:16:44;;;;;;;5.30;3.72;;;;;;;;;;5020488;28;20752;-81
2021/12/27 06:19:12;;;;;;;4.78;4.30;;;;;;;;;;5022641;28;20204;-81
2021/12/27 06:21:39;;;;;;;17.90;13.02;;;;;;;;;;5022145;28;20876;-82
2021/12/27 06:24:09;;;;;;;14.30;12.70;;;;;;;;;;5018553;28;20209;-82
2021/12/27 06:26:37;;;;;;;13.98;10.73;;;;;;;;;;5019703;28;20251;-82
2021/12/27 06:29:04;;;;;;;7.40;6.70;;;;;;;;;;5020008;28;20208;-82
2021/12/27 06:31:31;;;;;;;5.28;4.78;;;;;;;;;;5022354;28;20200;-81
2021/12/27 06:33:58;;;;;;;5.28;4.47;;;;;;;;;;5020211;28;20562;-82
2021/12/27 06:36:26;;;;;;;8.02;4.05;;;;;;;;;;5019956;28;20216;-82
2021/12/27 06:38:53;;;;;;;4.35;3.92;;;;;;;;;;5019384;28;20208;-82
2021/12/27 06:41:24;;;;;;;4.15;3.75;;;5.50;99.90;;;;;;5017516;28;20271;-82
2021/12/27 06:43:52;;;;;;;4.65;4.00;;;;;;;;;;5020474;28;20210;-82
2021/12/27 06:46:19;;;;;;;5.38;4.18;;;;;;;;;;5015088;28;20571;-82
2021/12/27 06:48:46;;;;;;;5.43;4.22;;;;;;;;;;5021052;28;20197;-81
2021/12/27 06:51:13;;;;;;;5.97;4.50;;;;;;;;;;5019784;28;20218;-81
2021/12/27 06:53:41;;;;;;;4.55;4.15;;;;;;;;;;5021125;28;20212;-81
2021/12/27 06:56:08;;;;;;;6.57;4.10;;;;;;;;;;5025381;28;20193;-80
2021/12/27 06:58:37;;;;;;;5.65;5.07;;;;;;;;;;5026789;28;20205;-81
2021/12/27 07:01:05;;;;;;;4.57;4.18;;;;;;;;;;5026501;28;20228;-81
2021/12/27 07:03:32;;;;;;;7.18;5.65;;;;;;;;;;5024893;28;20824;-81
2021/12/27 07:05:59;;;;;;;5.75;5.13;;;;;;;;;;5026785;28;20197;-81
2021/12/27 07:08:27;;;;;;;5.78;5.18;;;;;;;;;;5027575;28;20746;-82
2021/12/27 07:10:54;;;;;;;5.95;5.10;;;;;;;;;;5027329;28;20833;-82
2021/12/27 07:13:22;;;;;;;8.25;7.25;;;;;;;;;;5027228;28;20204;-81
2021/12/27 07:15:50;;;;;;;8.27;7.10;;;5.00;99.90;;;;;;5026504;28;20226;-81
2021/12/27 07:18:22;;;;;;;7.40;6.70;;;5.00;99.90;;;;;;5027032;28;20572;-81
2021/12/27 07:20:50;;;;;;;8.20;6.97;;;;;;;;;;5026650;28;20216;-83
2021/12/27 07:23:18;;;;;;;11.13;8.50;;;5.00;99.90;;;;;;5026243;28;20259;-82
2021/12/27 07:25:45;;;;;;;9.32;6.85;;;;;;;;;;5023969;28;20196;-82
2021/12/27 07:28:13;;;;;;;7.38;5.65;;;;;;;;;;5026513;28;20197;-82
2021/12/27 07:30:43;;;;;;;8.10;7.15;;;5.00;99.90;;;;;;5027345;28;20219;-82
2021/12/27 07:33:15;;;;;;;15.30;12.20;;;;;;;;;;5027322;28;20258;-82
2021/12/27 07:35:42;;;;;;;15.63;12.70;;;;;;;;;;5023581;28;20193;-81
2021/12/27 07:38:09;;;;;;;16.60;12.95;;;;;;;;;;5026939;28;20199;-82
2021/12/27 07:40:37;;;;;;;12.15;10.85;;;;;;;;;;5026532;28;20200;-82
2021/12/27 07:43:04;;;;;;;12.25;8.80;;;;;;;;;;5027165;28;20197;-82
2021/12/27 07:45:31;;;;;;;11.13;9.60;;;;;;;;;;5020891;28;20233;-82
2021/12/27 07:47:59;;;;;;;10.45;9.40;;;;;;;;;;5025535;28;20666;-81
2021/12/27 07:50:27;;;;;;;12.93;11.18;;;;;;;;;;5024234;28;20904;-81
2021/12/27 07:52:55;;;;;;;16.77;13.80;;;;;;;;;;5025236;28;20197;-81
2021/12/27 07:55:26;;;;;;;20.35;17.20;;;;;;;;;;5022119;28;20292;-81
2021/12/27 07:57:53;;;;;;;17.58;15.45;;;;;;;;;;5026868;28;20227;-80
2021/12/27 08:00:21;;;;;;;18.90;16.55;;;;;;;;;;5025401;28;20197;-80
2021/12/27 08:02:48;;;;;;;16.20;14.45;;;;;;;;;;5025313;28;20232;-81
2021/12/27 08:05:15;;;;;;;12.02;10.88;;;;;;;;;;5024049;28;20205;-80
2021/12/27 08:07:44;;;;;;;15.38;9.70;;;;;;;;;;5019620;28;20217;-81
2021/12/27 08:10:14;;;;;;;8.25;7.35;;;5.50;99.90;;;;;;5026706;28;20201;-81
2021/12/27 08:12:41;;;;;;;10.98;8.25;;;;;;;;;;5021913;28;20571;-81
2021/12/27 08:15:10;;;;;;;9.23;7.10;;;5.60;99.90;;;;;;5022848;28;20205;-81
2021/12/27 08:17:38;;;;;;;7.28;6.55;;;5.60;99.90;;;;;;5023416;28;20206;-81
2021/12/27 08:20:07;;;;;;;12.10;9.10;;;5.60;99.90;;;;;;5022328;28;20235;-80
2021/12/27 08:22:34;;;;;;;10.77;9.57;;;;;;;;;;5022998;28;20232;-80
2021/12/27 08:25:06;;;;;;;9.25;7.85;;;;;;;;;;5021571;28;20200;-81
2021/12/27 08:27:34;;;;;;;7.97;7.15;;;;;;;;;;5023664;28;20206;-81
2021/12/27 08:30:04;;;;;;;6.60;5.75;;;;;;;;;;5026622;28;20197;-81
2021/12/27 08:32:32;;;;;;;6.18;5.53;;;;;;;;;;5023405;28;20196;-81
2021/12/27 08:35:01;;;;;;;8.27;6.18;;;;;;;;;;5020185;28;20204;-81
2021/12/27 08:37:28;;;;;;;6.32;5.55;;;;;;;;;;5022542;28;20197;-82
2021/12/27 08:39:55;;;;;;;6.80;6.20;;;;;;;;;;5019295;28;20278;-81
2021/12/27 08:42:24;;;;;;;7.65;6.85;;;;;;;;;;5016189;28;20330;-81
2021/12/27 08:44:51;;;;;;;7.10;6.20;;;;;;;;;;5018674;28;20250;-81
2021/12/27 08:47:19;;;;;;;8.40;6.65;;;;;;;;;;5019114;28;20205;-82
2021/12/27 08:49:46;;;;;;;5.88;5.22;;;;;;;;;;5018058;28;20566;-82
2021/12/27 08:52:13;;;;;;;6.15;5.63;;;;;;;;;;5020711;28;20204;-82
2021/12/27 08:54:40;;;;;;;9.07;7.20;;;;;;;;;;5017451;28;20210;-82
2021/12/27 08:57:09;;;;;;;9.60;6.00;;;;;;;;;;5022227;28;20543;-82
2021/12/27 08:59:38;;;;;;;6.50;5.18;;;6.10;99.90;;;;;;5020042;28;20209;-83
2021/12/27 09:02:06;;;;;;;6.20;5.57;;;;;;;;;;5024082;28;20237;-82
2021/12/27 09:04:34;;;;;;;6.80;5.70;;;;;;;;;;5018602;28;20945;-83
2021/12/27 09:07:01;;;;;;;8.00;6.40;;;;;;;;;;5021181;28;20212;-82
2021/12/27 09:09:29;;;;;;;7.45;6.10;;;;;;;;;;5020357;28;20228;-82
2021/12/27 09:11:56;;;;;;;7.93;5.60;;;;;;;;;;5019675;28;20213;-82
2021/12/27 09:14:23;;;;;;;7.57;6.47;;;;;;;;;;5021062;28;20212;-82
2021/12/27 09:16:52;;;;;;;7.38;6.47;;;;;;;;;;5021558;28;20216;-82
2021/12/27 09:19:19;;;;;;;7.72;6.43;;;;;;;;;;5019825;28;20263;-82
2021/12/27 09:21:46;;;;;;;7.20;6.50;;;;;;;;;;5020159;28;20228;-82
2021/12/27 09:24:14;;;;;;;8.38;6.35;;;;;;;;;;5019976;28;20212;-83
2021/12/27 09:26:41;;;;;;;9.07;7.05;;;;;;;;;;5018416;28;20213;-83
2021/12/27 09:29:08;;;;;;;8.13;6.80;;;;;;;;;;5021954;28;20208;-83
2021/12/27 09:31:35;;;;;;;8.73;6.32;;;;;;;;;;5018934;28;20208;-82
2021/12/27 09:34:04;;;;;;;6.35;5.70;;;;;;;;;;5020416;28;20204;-83
2021/12/27 09:36:32;;;;;;;11.15;5.20;;;;;;;;;;5019952;28;20270;-82
2021/12/27 09:38:59;;;;;;;6.10;5.40;;;;;;;;;;5018426;28;20209;-83
2021/12/27 09:41:26;;;;;;;8.90;5.82;;;6.80;99.90;;;;;;5017961;28;20232;-83
2021/12/27 09:43:55;;;;;;;6.55;5.82;;;6.90;99.90;;;;;;5021088;28;20228;-83
2021/12/27 09:46:23;;;;;;;7.72;6.07;;;6.90;99.90;;;;;;5019226;28;20293;-82
2021/12/27 09:48:51;;;;;;;5.97;4.80;;;;;;;;;;5018654;28;20205;-83
2021/12/27 09:51:19;;;;;;;9.65;5.53;;;;;;;;;;5020967;28;20196;-82
2021/12/27 09:53:47;;;;;;;8.50;5.60;;;;;;;;;;5018043;28;20616;-83
2021/12/27 09:56:14;;;;;;;7.90;5.32;;;;;;;;;;5019696;28;20928;-83
2021/12/27 09:58:41;;;;;;;5.45;4.53;;;7.00;99.90;;;;;;5021436;28;20208;-82
2021/12/27 10:01:09;;;;;;;5.25;4.65;;;;;;;;;;5023000;28;20222;-83
2021/12/27 10:03:47;;;;;;;5.30;4.80;;;7.00;99.90;;;;;;5021461;28;20212;-83
2021/12/27 10:06:14;;;;;;;6.38;4.35;;;;;;;;;;5018616;28;20605;-83
2021/12/27 10:08:46;;;;;;;6.70;4.80;;;7.20;99.90;;;;;;5018315;28;20304;-82
2021/12/27 10:11:21;;;;;;;5.20;4.35;;;7.00;99.90;;;;;;5017079;28;20319;-83
2021/12/27 10:14:02;;;;;;;5.05;4.55;;;7.00;99.90;;;;;;5018800;28;20204;-83
2021/12/27 10:16:30;;;;;;;6.13;5.25;;;7.20;99.90;;;;;;5017158;28;20209;-83
2021/12/27 10:18:59;;;;;;;6.07;4.57;;;7.10;99.90;;;;;;5019487;28;20338;-83
2021/12/27 10:21:26;;;;;;;4.18;3.58;;;7.10;99.90;;;;;;5019659;28;20678;-83
2021/12/27 10:24:09;;;;;;;4.28;3.72;;;;;;;;;;5016959;28;20216;-83
2021/12/27 10:26:37;;;;;;;5.05;4.30;;;;;;;;;;5020316;28;20579;-83
2021/12/27 10:29:08;;;;;;;5.43;4.50;;;;;;;;;;5017917;28;20599;-83
2021/12/27 10:31:51;;;;;;;6.13;5.57;;;;;;;;;;5017163;28;20303;-83
2021/12/27 10:34:18;;;;;;;10.50;4.30;;;;;;;;;;5016842;28;20236;-82
2021/12/27 10:36:59;;;;;;;4.45;4.05;;;7.50;99.90;;;;;;5023035;28;20224;-83
2021/12/27 10:39:42;;;;;;;6.32;5.10;;;7.30;99.90;;;;;;5017381;28;20266;-84
2021/12/27 10:42:09;;;;;;;5.00;3.40;;;;;;;;;;5016565;28;20570;-84
2021/12/27 10:44:37;;;;;;;7.38;4.55;;;;;;;;;;5024696;28;20230;-84
2021/12/27 10:47:04;;;;;;;7.45;5.05;;;;;;;;;;5025242;28;20800;-84
2021/12/27 10:49:47;;;;;;;7.90;4.60;;;7.40;99.90;;;;;;5026539;28;20196;-83
2021/12/27 10:52:15;;;;;;;7.20;4.10;;;;;;;;;;5024822;28;20200;-84
2021/12/27 10:54:43;;;;;;;6.45;4.18;;;;;;;;;;5018600;28;20215;-84
2021/12/27 10:57:11;;;;;;;5.32;3.92;;;;;;;;;;5017192;28;20216;-84
2021/12/27 10:59:38;;;;;;;5.53;4.85;;;;;;;;;;5025391;28;20254;-85
2021/12/27 11:02:14;;;;;;;4.18;3.78;;;7.80;99.90;;;;;;5027170;28;20224;-85
2021/12/27 11:04:42;;;;;;;4.00;3.60;;;;;;;;;;5025091;28;20211;-85
2021/12/27 11:07:16;;;;;;;4.43;4.03;;;;;;;;;;5025933;28;20197;-85
2021/12/27 11:10:01;;;;;;;5.03;4.10;;;7.90;99.90;;;;;;5023795;28;20256;-85
2021/12/27 11:12:28;;;;;;;4.73;3.47;;;;;;;;;;5023842;28;20213;-86
2021/12/27 11:15:01;;;;;;;3.78;3.33;;;;;;;;;;5025767;28;20689;-86
2021/12/27 11:17:29;;;;;;;8.77;4.90;;;7.90;99.90;;;;;;5026411;28;20227;-84
2021/12/27 11:20:07;;;;;;;4.47;4.03;;;8.20;99.90;;;;;;5026970;28;20611;-84
2021/12/27 11:22:34;;;;;;;3.87;3.47;;;;;;;;;;5025313;28;21114;-84
2021/12/27 11:25:06;;;;;;;3.87;3.47;;;;;;;;;;5029484;28;20658;-84
2021/12/27 11:27:35;;;;;;;5.63;3.42;;;8.10;99.90;;;;;;5033238;28;20623;-85
2021/12/27 11:30:09;;;;;;;3.60;3.00;;;8.20;99.90;;;;;;5031793;28;20201;-85
2021/12/27 11:32:36;;;;;;;3.90;3.20;;;;;;;;;;5032796;28;20615;-84
2021/12/27 11:35:09;;;;;;;3.83;3.00;;;8.30;99.90;;;;;;5030213;28;20674;-85
2021/12/27 11:37:46;;;;;;;5.00;3.40;;;8.30;99.90;;;;;;5033335;28;20634;-84
2021/12/27 11:40:20;;;;;;;4.17;2.83;;;8.40;99.90;;;;;;5030772;28;20656;-85
2021/12/27 11:42:55;;;;;;;8.97;3.57;;;8.50;99.90;;;;;;5031408;28;21239;-84
2021/12/27 11:45:38;;;;;;;4.33;3.13;;;;;;;;;;5015768;28;20638;-85
2021/12/27 11:48:13;;;;;;;3.03;2.77;;;8.60;99.90;;;;;;5032539;28;21052;-85
2021/12/27 11:51:14;;;;;;;6.20;3.90;;;8.60;99.90;;;;;;5030708;28;20626;-85
2021/12/27 11:53:52;;;;;;;5.40;5.00;;;8.70;99.90;;;;;;5032205;28;20626;-85
2021/12/27 11:56:46;;;;;;;5.17;4.30;;;8.70;99.90;;;;;;5031518;28;21214;-85
2021/12/27 11:59:32;;;;;;;6.77;4.10;;;;;;;;;;5033071;28;20960;-85
2021/12/27 12:02:01;;;;;;;3.73;3.43;;;8.50;99.90;;;;;;5030907;28;20625;-85
2021/12/27 12:04:44;;;;;;;4.47;4.03;;;8.70;99.90;;;;;;5032103;28;20758;-84
2021/12/27 12:07:11;;;;;;;4.40;3.60;;;;;;;;;;5032667;28;20718;-85
2021/12/27 12:09:46;;;;;;;3.43;2.73;;;8.80;99.90;;;;;;5030444;28;21020;-85
2021/12/27 12:12:15;;;;;;;2.93;2.70;;;8.80;99.90;;;;;;5034867;28;20646;-85
2021/12/27 12:14:43;;;;;;;3.33;2.93;;;8.90;99.90;;;;;;5031325;28;20626;-85
2021/12/27 12:17:14;;;;;;;3.87;3.37;;;9.00;99.90;;;;;;5032073;28;20654;-84
2021/12/27 12:19:45;;;;;;;4.03;3.60;;;9.00;99.90;;;;;;5026444;28;20646;-85
2021/12/27 12:22:37;;;;;;;3.90;3.43;;;8.90;99.90;;;;;;5031479;28;20714;-85
2021/12/27 12:25:08;;;;;;;3.63;3.33;;;;;;;;;;5029809;28;20987;-86
2021/12/27 12:27:37;;;;;;;5.87;3.57;;;;;;;;;;5032870;28;20639;-84
2021/12/27 12:30:05;;;;;;;5.83;3.53;;;;;;;;;;5032657;28;20615;-85
2021/12/27 12:32:32;;;;;;;5.30;3.73;;;;;;;;;;5027934;28;20643;-83
2021/12/27 12:34:59;;;;;;;4.40;3.53;;;;;;;;;;5025098;28;20638;-83
2021/12/27 12:37:26;;;;;;;4.83;3.43;;;;;;;;;;5025505;28;20639;-84
2021/12/27 12:39:54;;;;;;;4.33;3.77;;;;;;;;;;5023043;28;20642;-83
2021/12/27 12:42:23;;;;;;;4.47;4.07;;;8.80;99.90;;;;;;5019283;28;20721;-84
2021/12/27 12:44:54;;;;;;;3.93;3.53;;;8.80;99.90;;;;;;5025300;28;20722;-85
2021/12/27 12:47:23;;;;;;;3.73;3.43;;;8.30;99.90;;;;;;5023015;28;20641;-84
2021/12/27 12:49:51;;;;;;;5.10;3.83;;;8.90;99.90;;;;;;5028108;28;21210;-84
2021/12/27 12:52:18;;;;;;;3.60;3.27;;;;;;;;;;5024150;28;20635;-85
2021/12/27 12:54:46;;;;;;;4.43;3.00;;;;;;;;;;5022550;28;20638;-85
2021/12/27 12:57:15;;;;;;;3.73;3.43;;;9.00;99.90;;;;;;5021779;28;20631;-85
2021/12/27 12:59:44;;;;;;;4.37;3.47;;;9.00;99.90;;;;;;5022573;28;20679;-85
2021/12/27 13:02:15;;;;;;;4.93;3.40;;;9.00;99.90;;;;;;5024634;28;20693;-85
2021/12/27 13:04:48;;;;;;;5.87;3.30;;;9.00;99.90;;;;;;5022405;28;20646;-85
2021/12/27 13:07:31;;;;;;;4.13;3.53;;;8.90;99.90;;;;;;5018448;28;21280;-85
2021/12/27 13:09:58;;;;;;;4.70;3.53;;;;;;;;;;5023555;28;20631;-85
2021/12/27 13:12:28;;;;;;;4.10;3.70;;;8.90;99.90;;;;;;5021048;28;20623;-85
2021/12/27 13:14:56;;;;;;;3.57;3.27;;;8.80;99.90;;;;;;5025297;28;21188;-85
2021/12/27 13:17:26;;;;;;;4.10;3.53;;;8.90;99.90;;;;;;5024222;28;20708;-84
2021/12/27 13:20:09;;;;;;;4.60;4.20;;;8.90;99.90;;;;;;5022027;28;20684;-85
2021/12/27 13:22:44;;;;;;;3.03;2.67;;;8.90;99.90;;;;;;5025178;28;20669;-85
2021/12/27 13:25:13;;;;;;;4.30;3.03;;;;;;;;;;5027177;28;21124;-85
2021/12/27 13:27:41;;;;;;;3.73;2.70;;;;;;;;;;5027351;28;20653;-85
2021/12/27 13:30:10;;;;;;;3.17;2.87;;;8.70;99.90;;;;;;5027167;28;20631;-85
2021/12/27 13:32:39;;;;;;;3.60;3.03;;;;;;;;;;5027645;28;20627;-84
2021/12/27 13:35:06;;;;;;;4.30;3.90;;;;;;;;;;5026930;28;20630;-83
2021/12/27 13:37:36;;;;;;;4.30;3.90;;;;;;;;;;5027681;28;20645;-84
2021/12/27 13:40:05;;;;;;;3.40;2.90;;;;;;;;;;5024751;28;20623;-84
2021/12/27 13:42:32;;;;;;;3.37;3.07;;;;;;;;;;5027404;28;20658;-84
2021/12/27 13:45:08;;;;;;;3.30;2.83;;;8.60;99.90;;;;;;5026197;28;20623;-84
2021/12/27 13:47:35;;;;;;;2.53;2.33;;;;;;;;;;5022631;28;20635;-85
2021/12/27 13:50:05;;;;;;;2.60;2.40;;;;;;;;;;5018003;28;20647;-85
2021/12/27 13:52:44;;;;;;;3.20;2.90;;;8.70;99.90;;;;;;5027038;28;21192;-84
2021/12/27 13:55:22;;;;;;;3.23;2.93;;;8.60;99.90;;;;;;5022784;28;20731;-84
2021/12/27 13:57:49;;;;;;;3.10;2.90;;;;;;;;;;5024574;28;21140;-84
2021/12/27 14:00:17;;;;;;;3.20;2.93;;;;;;;;;;5027164;28;20635;-85
2021/12/27 14:02:45;;;;;;;4.30;3.47;;;8.50;99.90;;;;;;5027124;28;21014;-84
2021/12/27 14:05:14;;;;;;;3.00;2.70;;;;;;;;;;5026423;28;21008;-85
2021/12/27 14:07:42;;;;;;;3.67;3.37;;;;;;;;;;5025804;28;20663;-85
2021/12/27 14:10:09;;;;;;;3.50;3.17;;;;;;;;;;5026498;28;20648;-85
2021/12/27 14:12:36;;;;;;;3.37;3.07;;;;;;;;;;5027145;28;20670;-85
2021/12/27 14:15:06;;;;;;;2.87;2.60;;;8.40;99.90;;;;;;5026692;28;20634;-85